sensor_id;sensor_type;location;lat;lon;timestamp;pressure;altitude;pressure_sealevel;temperature;humidity
64139;BME280;50435;43.700;-79.318;2023-01-28T00:00:54;99976.40;;;0.50;49.79
64139;BME280;50435;43.700;-79.318;2023-01-28T00:03:22;99976.07;;;0.28;50.29
64139;BME280;50435;43.700;-79.318;2023-01-28T00:05:50;99982.06;;;0.49;49.67
64139;BME280;50435;43.700;-79.318;2023-01-28T00:08:17;99981.28;;;0.44;50.18
64139;BME280;50435;43.700;-79.318;2023-01-28T00:10:44;99976.80;;;0.48;49.78
64139;BME280;50435;43.700;-79.318;2023-01-28T00:13:12;99978.65;;;0.53;49.74
64139;BME280;50435;43.700;-79.318;2023-01-28T00:15:39;99981.87;;;0.57;49.67
64139;BME280;50435;43.700;-79.318;2023-01-28T00:18:08;99978.25;;;0.17;49.92
64139;BME280;50435;43.700;-79.318;2023-01-28T00:20:35;99976.83;;;0.46;50.06
64139;BME280;50435;43.700;-79.318;2023-01-28T00:23:02;99973.85;;;0.56;49.81
64139;BME280;50435;43.700;-79.318;2023-01-28T00:25:30;99962.11;;;0.51;49.41
64139;BME280;50435;43.700;-79.318;2023-01-28T00:27:58;99956.36;;;0.53;49.66
64139;BME280;50435;43.700;-79.318;2023-01-28T00:30:25;99958.69;;;0.27;49.10
64139;BME280;50435;43.700;-79.318;2023-01-28T00:32:53;99971.06;;;0.50;50.16
64139;BME280;50435;43.700;-79.318;2023-01-28T00:35:20;99964.22;;;0.19;50.20
64139;BME280;50435;43.700;-79.318;2023-01-28T00:37:47;99959.90;;;0.91;50.21
64139;BME280;50435;43.700;-79.318;2023-01-28T00:40:15;99945.64;;;0.74;49.75
64139;BME280;50435;43.700;-79.318;2023-01-28T00:42:42;99947.15;;;0.50;50.06
64139;BME280;50435;43.700;-79.318;2023-01-28T00:45:10;99944.17;;;0.52;49.47
64139;BME280;50435;43.700;-79.318;2023-01-28T00:47:37;99944.41;;;0.50;48.57
64139;BME280;50435;43.700;-79.318;2023-01-28T00:50:05;99940.88;;;0.49;48.81
64139;BME280;50435;43.700;-79.318;2023-01-28T00:52:33;99938.63;;;0.54;49.42
64139;BME280;50435;43.700;-79.318;2023-01-28T00:55:01;99932.53;;;0.43;49.00
64139;BME280;50435;43.700;-79.318;2023-01-28T00:57:28;99937.75;;;0.46;49.46
64139;BME280;50435;43.700;-79.318;2023-01-28T00:59:56;99940.05;;;0.47;49.33
64139;BME280;50435;43.700;-79.318;2023-01-28T01:02:23;99952.19;;;0.40;49.90
64139;BME280;50435;43.700;-79.318;2023-01-28T01:04:52;99957.83;;;0.49;49.56
64139;BME280;50435;43.700;-79.318;2023-01-28T01:07:21;99950.83;;;0.49;48.94
64139;BME280;50435;43.700;-79.318;2023-01-28T01:09:49;99945.82;;;0.46;49.91
64139;BME280;50435;43.700;-79.318;2023-01-28T01:12:16;99946.14;;;0.50;50.06
64139;BME280;50435;43.700;-79.318;2023-01-28T01:14:43;99933.67;;;0.46;49.81
64139;BME280;50435;43.700;-79.318;2023-01-28T01:17:11;99936.05;;;0.14;50.22
64139;BME280;50435;43.700;-79.318;2023-01-28T01:19:38;99931.57;;;0.34;50.06
64139;BME280;50435;43.700;-79.318;2023-01-28T01:22:05;99926.52;;;0.17;49.74
64139;BME280;50435;43.700;-79.318;2023-01-28T01:24:33;99928.83;;;0.34;50.17
64139;BME280;50435;43.700;-79.318;2023-01-28T01:27:00;99922.07;;;0.39;49.52
64139;BME280;50435;43.700;-79.318;2023-01-28T01:29:27;99921.76;;;0.35;50.33
64139;BME280;50435;43.700;-79.318;2023-01-28T01:31:55;99921.44;;;0.43;50.44
64139;BME280;50435;43.700;-79.318;2023-01-28T01:34:23;99911.91;;;0.26;50.83
64139;BME280;50435;43.700;-79.318;2023-01-28T01:36:50;99892.81;;;0.52;51.04
64139;BME280;50435;43.700;-79.318;2023-01-28T01:39:18;99881.93;;;0.29;51.08
64139;BME280;50435;43.700;-79.318;2023-01-28T01:41:45;99874.11;;;0.42;50.79
64139;BME280;50435;43.700;-79.318;2023-01-28T01:45:17;99872.32;;;0.37;50.93
64139;BME280;50435;43.700;-79.318;2023-01-28T01:47:48;99858.32;;;0.40;50.83
64139;BME280;50435;43.700;-79.318;2023-01-28T01:50:24;99849.97;;;0.15;50.60
64139;BME280;50435;43.700;-79.318;2023-01-28T01:52:58;99849.80;;;0.67;50.81
64139;BME280;50435;43.700;-79.318;2023-01-28T01:55:29;99842.50;;;0.36;50.62
64139;BME280;50435;43.700;-79.318;2023-01-28T01:58:00;99834.55;;;0.36;50.63
64139;BME280;50435;43.700;-79.318;2023-01-28T02:00:29;99837.81;;;0.46;50.75
64139;BME280;50435;43.700;-79.318;2023-01-28T02:02:56;99831.05;;;0.33;50.89
64139;BME280;50435;43.700;-79.318;2023-01-28T02:05:24;99828.80;;;0.87;50.58
64139;BME280;50435;43.700;-79.318;2023-01-28T02:07:54;99815.24;;;0.32;50.97
64139;BME280;50435;43.700;-79.318;2023-01-28T02:10:23;99815.68;;;0.49;50.83
64139;BME280;50435;43.700;-79.318;2023-01-28T02:12:54;99820.45;;;0.41;50.61
64139;BME280;50435;43.700;-79.318;2023-01-28T02:15:24;99803.62;;;0.35;50.25
64139;BME280;50435;43.700;-79.318;2023-01-28T02:17:52;99800.48;;;0.41;50.11
64139;BME280;50435;43.700;-79.318;2023-01-28T02:20:23;99797.30;;;0.19;50.20
64139;BME280;50435;43.700;-79.318;2023-01-28T02:23:21;99786.14;;;0.40;50.57
64139;BME280;50435;43.700;-79.318;2023-01-28T02:26:05;99774.88;;;0.72;50.56
64139;BME280;50435;43.700;-79.318;2023-01-28T02:28:40;99778.87;;;0.35;51.10
64139;BME280;50435;43.700;-79.318;2023-01-28T02:31:16;99774.45;;;1.00;50.51
64139;BME280;50435;43.700;-79.318;2023-01-28T02:33:49;99766.25;;;0.44;50.34
64139;BME280;50435;43.700;-79.318;2023-01-28T02:36:26;99761.11;;;0.37;51.00
64139;BME280;50435;43.700;-79.318;2023-01-28T02:38:57;99763.65;;;0.47;50.49
64139;BME280;50435;43.700;-79.318;2023-01-28T02:41:30;99767.67;;;0.46;50.70
64139;BME280;50435;43.700;-79.318;2023-01-28T02:44:01;99756.14;;;0.49;51.05
64139;BME280;50435;43.700;-79.318;2023-01-28T02:46:36;99754.87;;;0.94;50.83
64139;BME280;50435;43.700;-79.318;2023-01-28T02:49:09;99745.62;;;0.47;50.41
64139;BME280;50435;43.700;-79.318;2023-01-28T02:51:57;99744.62;;;0.54;50.82
64139;BME280;50435;43.700;-79.318;2023-01-28T02:54:35;99744.78;;;0.49;50.54
64139;BME280;50435;43.700;-79.318;2023-01-28T02:57:15;99735.22;;;0.40;51.16
64139;BME280;50435;43.700;-79.318;2023-01-28T02:59:50;99736.76;;;0.41;51.27
64139;BME280;50435;43.700;-79.318;2023-01-28T03:02:27;99727.79;;;0.48;51.14
64139;BME280;50435;43.700;-79.318;2023-01-28T03:05:02;99726.25;;;0.52;51.09
64139;BME280;50435;43.700;-79.318;2023-01-28T03:07:33;99710.26;;;0.52;51.02
64139;BME280;50435;43.700;-79.318;2023-01-28T03:10:05;99709.58;;;0.51;50.99
64139;BME280;50435;43.700;-79.318;2023-01-28T03:12:36;99701.78;;;0.75;51.32
64139;BME280;50435;43.700;-79.318;2023-01-28T03:15:09;99701.22;;;0.23;50.67
64139;BME280;50435;43.700;-79.318;2023-01-28T03:17:41;99695.56;;;0.28;51.44
64139;BME280;50435;43.700;-79.318;2023-01-28T03:20:11;99695.19;;;0.38;51.23
64139;BME280;50435;43.700;-79.318;2023-01-28T03:22:40;99689.92;;;0.79;51.53
64139;BME280;50435;43.700;-79.318;2023-01-28T03:25:14;99683.19;;;0.32;51.22
64139;BME280;50435;43.700;-79.318;2023-01-28T03:27:47;99674.60;;;0.59;51.08
64139;BME280;50435;43.700;-79.318;2023-01-28T03:30:22;99681.89;;;0.55;51.34
64139;BME280;50435;43.700;-79.318;2023-01-28T03:32:52;99672.90;;;0.68;51.28
64139;BME280;50435;43.700;-79.318;2023-01-28T03:35:22;99670.66;;;0.56;51.33
64139;BME280;50435;43.700;-79.318;2023-01-28T03:37:51;99666.47;;;0.71;51.21
64139;BME280;50435;43.700;-79.318;2023-01-28T03:40:18;99655.87;;;0.61;51.44
64139;BME280;50435;43.700;-79.318;2023-01-28T03:42:45;99653.57;;;0.68;51.26
64139;BME280;50435;43.700;-79.318;2023-01-28T03:45:13;99650.08;;;0.80;51.17
64139;BME280;50435;43.700;-79.318;2023-01-28T03:47:41;99660.24;;;0.78;51.43
64139;BME280;50435;43.700;-79.318;2023-01-28T03:50:10;99644.08;;;0.78;51.19
64139;BME280;50435;43.700;-79.318;2023-01-28T03:52:37;99648.53;;;0.74;51.38
64139;BME280;50435;43.700;-79.318;2023-01-28T03:55:05;99633.60;;;0.70;51.43
64139;BME280;50435;43.700;-79.318;2023-01-28T03:57:32;99634.72;;;0.90;51.10
64139;BME280;50435;43.700;-79.318;2023-01-28T03:59:59;99636.96;;;0.86;51.12
64139;BME280;50435;43.700;-79.318;2023-01-28T04:02:27;99629.93;;;0.97;51.04
64139;BME280;50435;43.700;-79.318;2023-01-28T04:04:55;99628.67;;;0.84;51.25
64139;BME280;50435;43.700;-79.318;2023-01-28T04:07:23;99625.59;;;0.96;50.91
64139;BME280;50435;43.700;-79.318;2023-01-28T04:09:50;99618.25;;;0.99;50.96
64139;BME280;50435;43.700;-79.318;2023-01-28T04:12:17;99616.36;;;0.58;50.81
64139;BME280;50435;43.700;-79.318;2023-01-28T04:14:45;99606.45;;;0.84;50.76
64139;BME280;50435;43.700;-79.318;2023-01-28T04:17:12;99606.47;;;0.57;51.22
64139;BME280;50435;43.700;-79.318;2023-01-28T04:19:39;99599.29;;;0.97;50.95
64139;BME280;50435;43.700;-79.318;2023-01-28T04:22:10;99598.64;;;0.36;50.85
64139;BME280;50435;43.700;-79.318;2023-01-28T04:24:38;99593.42;;;1.06;50.78
64139;BME280;50435;43.700;-79.318;2023-01-28T04:27:05;99593.62;;;0.85;50.78
64139;BME280;50435;43.700;-79.318;2023-01-28T04:29:32;99577.84;;;1.07;50.76
64139;BME280;50435;43.700;-79.318;2023-01-28T04:32:00;99567.08;;;0.97;50.88
64139;BME280;50435;43.700;-79.318;2023-01-28T04:34:27;99583.33;;;1.12;50.86
64139;BME280;50435;43.700;-79.318;2023-01-28T04:36:54;99574.77;;;1.14;50.64
64139;BME280;50435;43.700;-79.318;2023-01-28T04:39:22;99574.62;;;1.06;50.99
64139;BME280;50435;43.700;-79.318;2023-01-28T04:41:49;99577.46;;;0.92;50.92
64139;BME280;50435;43.700;-79.318;2023-01-28T04:44:16;99576.26;;;1.13;51.03
64139;BME280;50435;43.700;-79.318;2023-01-28T04:46:44;99564.20;;;1.12;50.93
64139;BME280;50435;43.700;-79.318;2023-01-28T04:49:11;99563.18;;;0.70;51.00
64139;BME280;50435;43.700;-79.318;2023-01-28T04:51:38;99565.65;;;1.19;50.87
64139;BME280;50435;43.700;-79.318;2023-01-28T04:54:06;99551.59;;;0.73;50.95
64139;BME280;50435;43.700;-79.318;2023-01-28T04:56:34;99559.93;;;1.17;51.15
64139;BME280;50435;43.700;-79.318;2023-01-28T04:59:01;99559.03;;;1.19;51.10
64139;BME280;50435;43.700;-79.318;2023-01-28T05:01:28;99546.95;;;1.22;50.99
64139;BME280;50435;43.700;-79.318;2023-01-28T05:03:56;99548.46;;;1.29;50.88
64139;BME280;50435;43.700;-79.318;2023-01-28T05:06:23;99561.04;;;1.10;50.86
64139;BME280;50435;43.700;-79.318;2023-01-28T05:08:51;99561.72;;;0.84;51.06
64139;BME280;50435;43.700;-79.318;2023-01-28T05:11:18;99554.58;;;1.09;50.94
64139;BME280;50435;43.700;-79.318;2023-01-28T05:13:45;99542.62;;;1.25;51.13
64139;BME280;50435;43.700;-79.318;2023-01-28T05:16:13;99543.76;;;0.82;51.20
64139;BME280;50435;43.700;-79.318;2023-01-28T05:18:40;99535.01;;;1.10;51.17
64139;BME280;50435;43.700;-79.318;2023-01-28T05:21:07;99540.46;;;0.94;51.29
64139;BME280;50435;43.700;-79.318;2023-01-28T05:23:35;99549.83;;;1.37;51.39
64139;BME280;50435;43.700;-79.318;2023-01-28T05:26:03;99541.81;;;1.09;51.38
64139;BME280;50435;43.700;-79.318;2023-01-28T05:28:31;99536.71;;;0.89;51.36
64139;BME280;50435;43.700;-79.318;2023-01-28T05:31:02;99537.07;;;1.34;51.53
64139;BME280;50435;43.700;-79.318;2023-01-28T05:33:30;99535.14;;;1.18;51.49
64139;BME280;50435;43.700;-79.318;2023-01-28T05:35:57;99537.33;;;1.16;51.70
64139;BME280;50435;43.700;-79.318;2023-01-28T05:38:24;99528.53;;;1.19;51.59
64139;BME280;50435;43.700;-79.318;2023-01-28T05:40:51;99534.43;;;1.38;51.63
64139;BME280;50435;43.700;-79.318;2023-01-28T05:43:18;99530.63;;;1.17;51.57
64139;BME280;50435;43.700;-79.318;2023-01-28T05:45:46;99525.05;;;1.10;51.87
64139;BME280;50435;43.700;-79.318;2023-01-28T05:48:14;99519.54;;;1.33;52.04
64139;BME280;50435;43.700;-79.318;2023-01-28T05:50:41;99523.51;;;1.31;52.12
64139;BME280;50435;43.700;-79.318;2023-01-28T05:53:09;99526.68;;;0.87;52.50
64139;BME280;50435;43.700;-79.318;2023-01-28T05:55:36;99525.66;;;1.22;52.57
64139;BME280;50435;43.700;-79.318;2023-01-28T05:58:03;99519.34;;;0.87;52.22
64139;BME280;50435;43.700;-79.318;2023-01-28T06:00:31;99514.84;;;1.09;52.30
64139;BME280;50435;43.700;-79.318;2023-01-28T06:02:58;99521.99;;;0.96;52.29
64139;BME280;50435;43.700;-79.318;2023-01-28T06:05:25;99519.09;;;1.20;52.27
64139;BME280;50435;43.700;-79.318;2023-01-28T06:07:53;99521.49;;;1.32;52.07
64139;BME280;50435;43.700;-79.318;2023-01-28T06:10:20;99517.98;;;1.03;52.22
64139;BME280;50435;43.700;-79.318;2023-01-28T06:12:47;99511.91;;;1.07;52.09
64139;BME280;50435;43.700;-79.318;2023-01-28T06:15:15;99520.68;;;1.10;52.25
64139;BME280;50435;43.700;-79.318;2023-01-28T06:17:43;99504.58;;;1.38;52.07
64139;BME280;50435;43.700;-79.318;2023-01-28T06:20:11;99512.04;;;1.17;52.33
64139;BME280;50435;43.700;-79.318;2023-01-28T06:22:38;99508.07;;;1.41;52.04
64139;BME280;50435;43.700;-79.318;2023-01-28T06:25:06;99511.82;;;1.33;52.33
64139;BME280;50435;43.700;-79.318;2023-01-28T06:27:33;99519.35;;;1.35;52.30
64139;BME280;50435;43.700;-79.318;2023-01-28T06:30:02;99522.04;;;1.18;52.14
64139;BME280;50435;43.700;-79.318;2023-01-28T06:32:29;99524.07;;;1.10;52.47
64139;BME280;50435;43.700;-79.318;2023-01-28T06:34:56;99525.07;;;1.52;52.03
64139;BME280;50435;43.700;-79.318;2023-01-28T06:37:23;99531.00;;;1.17;52.21
64139;BME280;50435;43.700;-79.318;2023-01-28T06:39:51;99532.80;;;1.52;51.98
64139;BME280;50435;43.700;-79.318;2023-01-28T06:42:19;99529.19;;;1.27;52.06
64139;BME280;50435;43.700;-79.318;2023-01-28T06:44:46;99534.03;;;1.50;52.07
64139;BME280;50435;43.700;-79.318;2023-01-28T06:47:13;99534.82;;;1.39;52.07
64139;BME280;50435;43.700;-79.318;2023-01-28T06:49:41;99539.49;;;1.87;51.78
64139;BME280;50435;43.700;-79.318;2023-01-28T06:52:08;99538.45;;;0.90;51.82
64139;BME280;50435;43.700;-79.318;2023-01-28T06:54:35;99540.06;;;1.87;51.69
64139;BME280;50435;43.700;-79.318;2023-01-28T06:57:03;99542.18;;;1.57;51.44
64139;BME280;50435;43.700;-79.318;2023-01-28T06:59:30;99542.20;;;1.37;51.80
64139;BME280;50435;43.700;-79.318;2023-01-28T07:01:57;99545.26;;;1.49;51.53
64139;BME280;50435;43.700;-79.318;2023-01-28T07:04:24;99550.37;;;1.55;51.51
64139;BME280;50435;43.700;-79.318;2023-01-28T07:06:52;99547.70;;;1.42;51.73
64139;BME280;50435;43.700;-79.318;2023-01-28T07:09:19;99547.84;;;1.47;52.23
64139;BME280;50435;43.700;-79.318;2023-01-28T07:11:47;99557.55;;;1.50;51.66
64139;BME280;50435;43.700;-79.318;2023-01-28T07:14:14;99556.11;;;1.54;51.60
64139;BME280;50435;43.700;-79.318;2023-01-28T07:16:41;99562.05;;;1.50;51.74
64139;BME280;50435;43.700;-79.318;2023-01-28T07:19:08;99566.23;;;1.48;51.70
64139;BME280;50435;43.700;-79.318;2023-01-28T07:21:36;99568.59;;;1.58;51.52
64139;BME280;50435;43.700;-79.318;2023-01-28T07:24:03;99565.94;;;1.58;51.47
64139;BME280;50435;43.700;-79.318;2023-01-28T07:26:30;99568.43;;;1.47;51.79
64139;BME280;50435;43.700;-79.318;2023-01-28T07:28:58;99583.74;;;1.84;51.48
64139;BME280;50435;43.700;-79.318;2023-01-28T07:31:25;99582.77;;;1.73;51.44
64139;BME280;50435;43.700;-79.318;2023-01-28T07:33:52;99581.30;;;1.63;51.54
64139;BME280;50435;43.700;-79.318;2023-01-28T07:36:19;99587.54;;;1.65;51.59
64139;BME280;50435;43.700;-79.318;2023-01-28T07:38:47;99594.77;;;1.61;51.62
64139;BME280;50435;43.700;-79.318;2023-01-28T07:41:14;99601.07;;;1.61;51.74
64139;BME280;50435;43.700;-79.318;2023-01-28T07:43:42;99596.18;;;1.67;51.64
64139;BME280;50435;43.700;-79.318;2023-01-28T07:46:09;99599.44;;;1.64;51.53
64139;BME280;50435;43.700;-79.318;2023-01-28T07:48:36;99604.21;;;1.65;51.57
64139;BME280;50435;43.700;-79.318;2023-01-28T07:51:04;99603.19;;;1.71;51.47
64139;BME280;50435;43.700;-79.318;2023-01-28T07:53:31;99607.63;;;1.64;51.66
64139;BME280;50435;43.700;-79.318;2023-01-28T07:55:59;99607.63;;;1.89;51.69
64139;BME280;50435;43.700;-79.318;2023-01-28T07:58:26;99603.61;;;1.69;51.62
64139;BME280;50435;43.700;-79.318;2023-01-28T08:00:56;99607.49;;;1.68;51.72
64139;BME280;50435;43.700;-79.318;2023-01-28T08:03:24;99612.44;;;1.79;51.49
64139;BME280;50435;43.700;-79.318;2023-01-28T08:05:53;99623.66;;;1.94;51.62
64139;BME280;50435;43.700;-79.318;2023-01-28T08:08:21;99629.47;;;1.79;51.47
64139;BME280;50435;43.700;-79.318;2023-01-28T08:10:49;99635.77;;;1.99;51.47
64139;BME280;50435;43.700;-79.318;2023-01-28T08:13:18;99636.21;;;1.90;51.35
64139;BME280;50435;43.700;-79.318;2023-01-28T08:15:46;99643.29;;;1.83;51.52
64139;BME280;50435;43.700;-79.318;2023-01-28T08:18:14;99646.29;;;1.77;51.56
64139;BME280;50435;43.700;-79.318;2023-01-28T08:20:42;99647.28;;;1.83;51.50
64139;BME280;50435;43.700;-79.318;2023-01-28T08:23:13;99655.67;;;1.82;51.56
64139;BME280;50435;43.700;-79.318;2023-01-28T08:25:40;99659.95;;;1.81;51.57
64139;BME280;50435;43.700;-79.318;2023-01-28T08:28:09;99671.54;;;1.37;51.56
64139;BME280;50435;43.700;-79.318;2023-01-28T08:30:36;99671.51;;;1.91;51.47
64139;BME280;50435;43.700;-79.318;2023-01-28T08:33:06;99680.15;;;1.84;51.69
64139;BME280;50435;43.700;-79.318;2023-01-28T08:35:34;99684.08;;;1.95;51.36
64139;BME280;50435;43.700;-79.318;2023-01-28T08:38:02;99691.83;;;1.94;51.47
64139;BME280;50435;43.700;-79.318;2023-01-28T08:40:31;99692.19;;;1.86;51.71
64139;BME280;50435;43.700;-79.318;2023-01-28T08:42:59;99693.10;;;2.13;51.58
64139;BME280;50435;43.700;-79.318;2023-01-28T08:45:28;99695.94;;;1.82;51.55
64139;BME280;50435;43.700;-79.318;2023-01-28T08:47:57;99706.43;;;1.86;51.73
64139;BME280;50435;43.700;-79.318;2023-01-28T08:50:25;99717.14;;;1.96;51.82
64139;BME280;50435;43.700;-79.318;2023-01-28T08:52:55;99728.61;;;1.83;51.77
64139;BME280;50435;43.700;-79.318;2023-01-28T08:55:24;99737.58;;;1.87;51.58
64139;BME280;50435;43.700;-79.318;2023-01-28T08:57:53;99730.37;;;1.91;51.46
64139;BME280;50435;43.700;-79.318;2023-01-28T09:00:21;99732.19;;;1.89;51.59
64139;BME280;50435;43.700;-79.318;2023-01-28T09:02:51;99739.91;;;1.96;51.51
64139;BME280;50435;43.700;-79.318;2023-01-28T09:05:19;99753.55;;;1.82;51.94
64139;BME280;50435;43.700;-79.318;2023-01-28T09:07:47;99760.74;;;1.86;51.81
64139;BME280;50435;43.700;-79.318;2023-01-28T09:10:15;99763.93;;;1.86;51.71
64139;BME280;50435;43.700;-79.318;2023-01-28T09:12:43;99752.50;;;1.88;51.67
64139;BME280;50435;43.700;-79.318;2023-01-28T09:15:11;99767.14;;;1.69;51.50
64139;BME280;50435;43.700;-79.318;2023-01-28T09:17:39;99771.68;;;1.89;51.72
64139;BME280;50435;43.700;-79.318;2023-01-28T09:20:08;99774.81;;;0.86;51.84
64139;BME280;50435;43.700;-79.318;2023-01-28T09:22:36;99778.50;;;1.86;51.80
64139;BME280;50435;43.700;-79.318;2023-01-28T09:25:04;99790.93;;;2.11;51.76
64139;BME280;50435;43.700;-79.318;2023-01-28T09:27:31;99806.52;;;1.91;51.77
64139;BME280;50435;43.700;-79.318;2023-01-28T09:29:58;99813.04;;;2.14;51.73
64139;BME280;50435;43.700;-79.318;2023-01-28T09:32:26;99824.13;;;1.92;51.76
64139;BME280;50435;43.700;-79.318;2023-01-28T09:34:53;99829.94;;;2.13;51.75
64139;BME280;50435;43.700;-79.318;2023-01-28T09:37:20;99845.15;;;2.16;51.79
64139;BME280;50435;43.700;-79.318;2023-01-28T09:39:47;99853.61;;;1.91;51.76
64139;BME280;50435;43.700;-79.318;2023-01-28T09:42:26;99863.00;;;1.93;51.80
64139;BME280;50435;43.700;-79.318;2023-01-28T09:45:03;99880.18;;;1.90;51.78
64139;BME280;50435;43.700;-79.318;2023-01-28T09:47:38;99883.61;;;2.03;51.65
64139;BME280;50435;43.700;-79.318;2023-01-28T09:50:10;99902.43;;;1.03;51.61
64139;BME280;50435;43.700;-79.318;2023-01-28T09:52:41;99928.34;;;1.98;51.77
64139;BME280;50435;43.700;-79.318;2023-01-28T09:55:18;99943.36;;;1.43;52.19
64139;BME280;50435;43.700;-79.318;2023-01-28T09:57:50;99937.08;;;2.00;51.96
64139;BME280;50435;43.700;-79.318;2023-01-28T10:00:20;99942.67;;;1.96;52.05
64139;BME280;50435;43.700;-79.318;2023-01-28T10:03:12;99947.61;;;1.82;52.36
64139;BME280;50435;43.700;-79.318;2023-01-28T10:05:54;99944.13;;;1.84;52.36
64139;BME280;50435;43.700;-79.318;2023-01-28T10:08:37;99966.76;;;1.90;52.53
64139;BME280;50435;43.700;-79.318;2023-01-28T10:11:18;99961.60;;;1.11;51.21
64139;BME280;50435;43.700;-79.318;2023-01-28T10:13:52;99971.99;;;1.90;52.22
64139;BME280;50435;43.700;-79.318;2023-01-28T10:16:28;99976.53;;;1.55;52.41
64139;BME280;50435;43.700;-79.318;2023-01-28T10:19:01;99990.19;;;1.81;52.59
64139;BME280;50435;43.700;-79.318;2023-01-28T10:21:38;100000.03;;;2.00;52.29
64139;BME280;50435;43.700;-79.318;2023-01-28T10:24:13;100004.57;;;1.56;52.20
64139;BME280;50435;43.700;-79.318;2023-01-28T10:26:44;100013.10;;;1.79;52.40
64139;BME280;50435;43.700;-79.318;2023-01-28T10:29:16;100024.34;;;1.51;52.40
64139;BME280;50435;43.700;-79.318;2023-01-28T10:31:51;100032.73;;;1.66;52.51
64139;BME280;50435;43.700;-79.318;2023-01-28T10:34:20;100031.40;;;1.68;52.57
64139;BME280;50435;43.700;-79.318;2023-01-28T10:36:48;100035.36;;;1.75;52.25
64139;BME280;50435;43.700;-79.318;2023-01-28T10:39:19;100043.40;;;1.75;52.32
64139;BME280;50435;43.700;-79.318;2023-01-28T10:41:47;100057.19;;;1.78;52.21
64139;BME280;50435;43.700;-79.318;2023-01-28T10:44:17;100073.25;;;1.71;52.41
64139;BME280;50435;43.700;-79.318;2023-01-28T10:46:48;100070.14;;;1.72;51.40
64139;BME280;50435;43.700;-79.318;2023-01-28T10:49:23;100069.34;;;1.77;52.15
64139;BME280;50435;43.700;-79.318;2023-01-28T10:51:52;100081.13;;;2.06;51.95
64139;BME280;50435;43.700;-79.318;2023-01-28T10:54:22;100085.93;;;1.76;52.17
64139;BME280;50435;43.700;-79.318;2023-01-28T10:56:53;100089.09;;;1.50;51.91
64139;BME280;50435;43.700;-79.318;2023-01-28T10:59:26;100100.18;;;1.67;52.18
64139;BME280;50435;43.700;-79.318;2023-01-28T11:01:56;100102.94;;;1.64;52.19
64139;BME280;50435;43.700;-79.318;2023-01-28T11:04:26;100112.54;;;1.66;52.02
64139;BME280;50435;43.700;-79.318;2023-01-28T11:06:56;100120.22;;;1.68;52.48
64139;BME280;50435;43.700;-79.318;2023-01-28T11:09:27;100122.59;;;1.71;52.11
64139;BME280;50435;43.700;-79.318;2023-01-28T11:11:56;100133.28;;;1.73;51.91
64139;BME280;50435;43.700;-79.318;2023-01-28T11:14:25;100147.73;;;1.62;52.75
64139;BME280;50435;43.700;-79.318;2023-01-28T11:16:55;100157.41;;;1.58;52.98
64139;BME280;50435;43.700;-79.318;2023-01-28T11:19:30;100167.83;;;1.57;52.36
64139;BME280;50435;43.700;-79.318;2023-01-28T11:22:01;100170.88;;;1.58;52.46
64139;BME280;50435;43.700;-79.318;2023-01-28T11:24:30;100177.03;;;1.52;52.46
64139;BME280;50435;43.700;-79.318;2023-01-28T11:27:10;100193.01;;;1.79;52.19
64139;BME280;50435;43.700;-79.318;2023-01-28T11:29:41;100198.28;;;1.58;52.23
64139;BME280;50435;43.700;-79.318;2023-01-28T11:32:16;100204.94;;;1.30;52.28
64139;BME280;50435;43.700;-79.318;2023-01-28T11:34:49;100213.61;;;1.42;52.59
64139;BME280;50435;43.700;-79.318;2023-01-28T11:37:20;100218.87;;;1.47;52.65
64139;BME280;50435;43.700;-79.318;2023-01-28T11:39:48;100227.98;;;1.66;52.55
64139;BME280;50435;43.700;-79.318;2023-01-28T11:42:26;100231.76;;;1.40;52.76
64139;BME280;50435;43.700;-79.318;2023-01-28T11:44:54;100241.74;;;1.40;52.60
64139;BME280;50435;43.700;-79.318;2023-01-28T11:47:30;100248.93;;;1.35;52.70
64139;BME280;50435;43.700;-79.318;2023-01-28T11:50:14;100254.09;;;1.59;53.20
64139;BME280;50435;43.700;-79.318;2023-01-28T11:52:53;100254.74;;;1.46;53.16
64139;BME280;50435;43.700;-79.318;2023-01-28T11:55:36;100260.15;;;1.23;53.25
64139;BME280;50435;43.700;-79.318;2023-01-28T11:58:17;100261.02;;;0.76;53.25
64139;BME280;50435;43.700;-79.318;2023-01-28T12:00:53;100275.15;;;1.25;53.25
64139;BME280;50435;43.700;-79.318;2023-01-28T12:03:38;100282.47;;;1.26;53.04
64139;BME280;50435;43.700;-79.318;2023-01-28T12:06:21;100290.45;;;0.50;53.32
64139;BME280;50435;43.700;-79.318;2023-01-28T12:08:58;100303.63;;;1.24;53.19
64139;BME280;50435;43.700;-79.318;2023-01-28T12:11:39;100297.57;;;1.25;52.90
64139;BME280;50435;43.700;-79.318;2023-01-28T12:14:19;100307.43;;;1.25;53.10
64139;BME280;50435;43.700;-79.318;2023-01-28T12:17:02;100319.28;;;1.36;52.94
64139;BME280;50435;43.700;-79.318;2023-01-28T12:19:45;100324.66;;;1.40;52.66
64139;BME280;50435;43.700;-79.318;2023-01-28T12:22:27;100325.85;;;1.33;52.85
64139;BME280;50435;43.700;-79.318;2023-01-28T12:25:08;100332.06;;;1.43;51.62
64139;BME280;50435;43.700;-79.318;2023-01-28T12:27:47;100328.23;;;1.49;52.49
64139;BME280;50435;43.700;-79.318;2023-01-28T12:30:25;100334.22;;;1.46;52.15
64139;BME280;50435;43.700;-79.318;2023-01-28T12:33:07;100344.07;;;1.60;51.98
64139;BME280;50435;43.700;-79.318;2023-01-28T12:35:51;100359.26;;;1.54;52.17
64139;BME280;50435;43.700;-79.318;2023-01-28T12:38:29;100370.91;;;1.73;52.13
64139;BME280;50435;43.700;-79.318;2023-01-28T12:41:06;100377.05;;;1.54;52.02
64139;BME280;50435;43.700;-79.318;2023-01-28T12:43:46;100383.12;;;1.60;51.93
64139;BME280;50435;43.700;-79.318;2023-01-28T12:46:24;100395.87;;;1.68;51.70
64139;BME280;50435;43.700;-79.318;2023-01-28T12:48:59;100407.73;;;1.65;51.68
64139;BME280;50435;43.700;-79.318;2023-01-28T12:51:35;100411.73;;;1.80;51.91
64139;BME280;50435;43.700;-79.318;2023-01-28T12:54:12;100425.46;;;0.73;51.89
64139;BME280;50435;43.700;-79.318;2023-01-28T12:56:47;100437.80;;;1.56;51.73
64139;BME280;50435;43.700;-79.318;2023-01-28T12:59:20;100440.78;;;1.56;51.89
64139;BME280;50435;43.700;-79.318;2023-01-28T13:01:53;100452.16;;;1.59;51.74
64139;BME280;50435;43.700;-79.318;2023-01-28T13:04:30;100460.32;;;1.58;51.65